Time;durP1;ratioP1;P1;durP2;ratioP2;P2;SDS_P1;SDS_P2;PMS_P1;PMS_P2;Temp;Humidity;BMP_temperature;BMP_pressure;BME280_temperature;BME280_humidity;BME280_pressure;Samples;Min_cycle;Max_cycle;Signal;HPM_P1;HPM_P2
2022/01/27 00:01:56;;;;;;;65.80;30.30;;;-2.10;99.90;;;;;;5073085;28;20204;-65
2022/01/27 00:04:32;;;;;;;57.43;26.77;;;-2.20;99.90;;;;;;5073343;28;20283;-64
2022/01/27 00:06:59;;;;;;;68.03;29.90;;;-2.20;99.90;;;;;;5073524;28;20204;-64
2022/01/27 00:09:42;;;;;;;67.87;29.47;;;-2.20;99.90;;;;;;5073708;28;20209;-65
2022/01/27 00:12:09;;;;;;;60.10;27.83;;;-2.30;99.90;;;;;;5073074;28;20219;-66
2022/01/27 00:14:44;;;;;;;60.53;26.93;;;-2.30;99.90;;;;;;5073362;28;20717;-66
2022/01/27 00:17:14;;;;;;;62.50;29.03;;;-2.30;99.90;;;;;;5073150;28;20279;-65
2022/01/27 00:19:43;;;;;;;62.43;28.30;;;-2.40;99.90;;;;;;5073084;28;20212;-65
2022/01/27 00:22:10;;;;;;;74.37;33.93;;;-2.40;99.90;;;;;;5073409;28;20235;-66
2022/01/27 00:24:37;;;;;;;70.97;32.10;;;-2.40;99.90;;;;;;5072996;28;20530;-65
2022/01/27 00:27:04;;;;;;;70.33;30.37;;;-2.40;99.90;;;;;;5073290;28;20227;-66
2022/01/27 00:29:31;;;;;;;81.43;34.07;;;-2.50;99.90;;;;;;5073218;28;20571;-65
2022/01/27 00:31:58;;;;;;;68.87;30.07;;;-2.50;99.90;;;;;;5073226;28;20228;-65
2022/01/27 00:34:24;;;;;;;66.67;29.77;;;-2.50;99.90;;;;;;5078200;28;20239;-66
2022/01/27 00:36:52;;;;;;;54.27;25.10;;;-2.50;99.90;;;;;;5090802;28;20197;-65
2022/01/27 00:39:19;;;;;;;51.47;24.43;;;-2.50;99.90;;;;;;5093101;28;20222;-64
2022/01/27 00:41:46;;;;;;;61.83;28.10;;;-2.50;99.90;;;;;;5091132;28;20195;-65
2022/01/27 00:44:14;;;;;;;51.73;23.77;;;-2.50;99.90;;;;;;5092721;28;20220;-64
2022/01/27 00:46:41;;;;;;;51.03;22.07;;;-2.50;99.90;;;;;;5092894;28;20196;-64
2022/01/27 00:49:08;;;;;;;49.77;21.77;;;-2.40;99.90;;;;;;5093061;28;20235;-65
2022/01/27 00:51:38;;;;;;;46.30;20.93;;;-2.40;99.90;;;;;;5092830;28;20203;-65
2022/01/27 00:54:09;;;;;;;50.00;21.27;;;-2.40;99.90;;;;;;5092600;28;20224;-65
2022/01/27 00:56:45;;;;;;;52.00;22.50;;;-2.40;99.90;;;;;;5092533;28;20199;-65
2022/01/27 01:00:08;;;;;;;50.27;23.40;;;-2.30;99.90;;;;;;5086923;28;20275;-64
2022/01/27 01:02:44;;;;;;;48.53;21.63;;;-2.30;99.90;;;;;;5072301;28;20687;-66
2022/01/27 01:12:32;;;;;;;48.10;20.47;;;-2.30;99.90;;;;;;5048966;28;20208;-65
2022/01/27 01:14:57;;;;;;;40.30;17.23;;;-2.30;99.90;;;;;;5071958;28;20586;-65
2022/01/27 01:17:40;;;;;;;44.63;19.07;;;-2.30;99.90;;;;;;5072169;28;20197;-64
2022/01/27 01:31:44;;;;;;;51.07;21.27;;;-2.20;99.90;;;;;;5076185;28;20319;-64
2022/01/27 01:34:15;;;;;;;39.07;16.67;;;-2.20;99.90;;;;;;5082718;28;20196;-65
2022/01/27 01:36:49;;;;;;;37.90;16.20;;;-2.20;99.90;;;;;;5091824;28;20636;-65
2022/01/27 01:39:16;;;;;;;37.43;16.33;;;-2.20;99.90;;;;;;5091961;28;20192;-66
2022/01/27 01:41:44;;;;;;;32.33;13.80;;;-2.20;99.90;;;;;;5091594;28;20196;-65
2022/01/27 01:44:14;;;;;;;30.43;14.23;;;-2.10;99.90;;;;;;5086238;28;20236;-66
2022/01/27 01:46:41;;;;;;;29.40;12.77;;;-2.10;99.90;;;;;;5091324;28;20929;-66
2022/01/27 01:49:08;;;;;;;29.77;12.17;;;-2.00;99.90;;;;;;5091567;28;20675;-65
2022/01/27 01:51:37;;;;;;;25.77;11.20;;;-2.10;99.90;;;;;;5091697;28;20675;-65
2022/01/27 01:54:05;;;;;;;24.83;10.90;;;-2.00;99.90;;;;;;5091884;28;20216;-65
2022/01/27 01:56:32;;;;;;;25.67;11.67;;;-2.00;99.90;;;;;;5091531;28;20204;-64
2022/01/27 01:58:59;;;;;;;28.60;12.03;;;-2.00;99.90;;;;;;5091963;28;20200;-68
2022/01/27 02:01:27;;;;;;;25.23;11.47;;;-1.90;99.90;;;;;;5091474;28;20208;-66
2022/01/27 02:03:54;;;;;;;28.67;12.30;;;-2.00;99.90;;;;;;5091829;28;20251;-66
2022/01/27 02:06:27;;;;;;;26.97;11.17;;;-2.00;99.90;;;;;;5091695;28;20298;-64
2022/01/27 02:09:13;;;;;;;25.50;11.53;;;-2.10;99.90;;;;;;5091810;28;20220;-66
2022/01/27 02:19:58;;;;;;;21.87;9.37;;;-2.00;99.90;;;;;;5071288;28;20195;-65
2022/01/27 02:22:26;;;;;;;17.23;8.90;;;-2.00;99.90;;;;;;5071224;28;20680;-65
2022/01/27 02:24:53;;;;;;;18.10;9.10;;;-2.00;99.90;;;;;;5074041;28;20220;-65
2022/01/27 02:27:21;;;;;;;20.03;9.30;;;-2.00;99.90;;;;;;5090876;28;20253;-65
2022/01/27 02:29:49;;;;;;;17.90;8.77;;;-2.00;99.90;;;;;;5091718;28;20676;-66
2022/01/27 02:32:17;;;;;;;17.33;9.10;;;-2.00;99.90;;;;;;5090916;28;20207;-66
2022/01/27 02:34:44;;;;;;;16.87;8.43;;;-2.00;99.90;;;;;;5092160;28;20200;-66
2022/01/27 02:37:13;;;;;;;16.47;8.27;;;-2.00;99.90;;;;;;5095023;28;20219;-66
2022/01/27 02:39:40;;;;;;;15.57;7.50;;;-2.00;99.90;;;;;;5095126;28;20236;-66
2022/01/27 02:42:12;;;;;;;16.80;8.10;;;-2.00;99.90;;;;;;5095287;28;20199;-65
2022/01/27 02:44:52;;;;;;;16.30;7.93;;;-2.00;99.90;;;;;;5095055;28;20302;-65
2022/01/27 02:47:20;;;;;;;16.53;7.57;;;-2.00;99.90;;;;;;5094758;28;20188;-66
2022/01/27 02:49:47;;;;;;;15.70;7.67;;;-1.90;99.90;;;;;;5095240;28;20223;-67
2022/01/27 02:52:17;;;;;;;15.77;7.73;;;-2.00;99.90;;;;;;5095124;28;20204;-64
2022/01/27 02:54:44;;;;;;;15.00;7.67;;;-2.10;99.90;;;;;;5095296;28;20200;-64
2022/01/27 02:57:11;;;;;;;17.10;7.87;;;-2.00;99.90;;;;;;5095163;28;20610;-65
2022/01/27 02:59:38;;;;;;;18.67;8.57;;;-2.00;99.90;;;;;;5095339;28;20200;-65
2022/01/27 03:02:05;;;;;;;19.90;8.50;;;-2.00;99.90;;;;;;5094978;28;20208;-65
2022/01/27 03:04:33;;;;;;;18.50;8.13;;;-2.10;99.90;;;;;;5094646;28;20227;-66
2022/01/27 03:07:03;;;;;;;19.77;9.53;;;-2.00;99.90;;;;;;5095003;28;20204;-65
2022/01/27 03:09:32;;;;;;;34.30;12.53;;;-2.00;99.90;;;;;;5095039;28;20212;-65
2022/01/27 03:12:01;;;;;;;35.37;13.00;;;-2.10;99.90;;;;;;5094757;28;20682;-66
2022/01/27 03:14:29;;;;;;;28.07;11.93;;;-2.10;99.90;;;;;;5085192;28;20203;-66
2022/01/27 03:16:58;;;;;;;22.40;10.50;;;-2.10;99.90;;;;;;5094703;28;20247;-65
2022/01/27 03:19:25;;;;;;;22.43;10.43;;;-2.10;99.90;;;;;;5094185;28;20204;-66
2022/01/27 03:21:53;;;;;;;23.53;10.10;;;-2.10;99.90;;;;;;5094433;28;20214;-65
2022/01/27 03:24:20;;;;;;;21.67;10.50;;;-2.10;99.90;;;;;;5094202;28;20712;-67
2022/01/27 03:26:49;;;;;;;20.03;9.10;;;-2.10;99.90;;;;;;5094722;28;20199;-66
2022/01/27 03:29:17;;;;;;;17.13;8.17;;;-2.10;99.90;;;;;;5094315;28;20208;-65
2022/01/27 03:31:44;;;;;;;15.87;7.13;;;-2.10;99.90;;;;;;5094664;28;20678;-67
2022/01/27 03:34:11;;;;;;;17.10;7.23;;;-2.00;99.90;;;;;;5093011;28;20200;-65
2022/01/27 03:36:38;;;;;;;16.13;7.77;;;-2.00;99.90;;;;;;5094457;28;20714;-67
2022/01/27 03:39:06;;;;;;;14.07;7.13;;;-2.00;99.90;;;;;;5094559;28;20211;-68
2022/01/27 03:41:34;;;;;;;14.40;6.93;;;-2.00;99.90;;;;;;5094005;28;20331;-66
2022/01/27 03:44:04;;;;;;;17.07;7.97;;;-2.00;99.90;;;;;;5094053;28;20583;-67
2022/01/27 03:46:31;;;;;;;14.03;7.03;;;-2.10;99.90;;;;;;5093038;28;20200;-65
2022/01/27 03:48:58;;;;;;;13.27;7.20;;;-2.30;99.90;;;;;;5092812;28;20204;-65
2022/01/27 03:51:24;;;;;;;20.87;8.60;;;-2.40;99.90;;;;;;5093950;28;20215;-66
2022/01/27 03:53:51;;;;;;;18.30;9.57;;;-2.40;99.90;;;;;;5093811;28;20218;-65
2022/01/27 03:56:18;;;;;;;19.97;9.27;;;-2.50;99.90;;;;;;5093795;28;20573;-66
2022/01/27 03:58:45;;;;;;;20.93;9.20;;;-2.50;99.90;;;;;;5093725;28;20196;-65
2022/01/27 04:01:13;;;;;;;19.50;9.63;;;-2.60;99.90;;;;;;5093844;28;20576;-66
2022/01/27 04:03:40;;;;;;;22.00;10.37;;;-2.60;99.90;;;;;;5094062;28;20204;-65
2022/01/27 04:06:08;;;;;;;24.87;11.63;;;-2.70;99.90;;;;;;5093843;28;20215;-66
2022/01/27 04:08:37;;;;;;;26.47;11.60;;;-2.80;99.90;;;;;;5093601;28;20218;-66
2022/01/27 04:11:05;;;;;;;26.83;13.53;;;-3.00;99.90;;;;;;5093230;28;20298;-66
2022/01/27 04:13:32;;;;;;;28.57;13.73;;;-3.10;99.90;;;;;;5093565;28;20216;-66
2022/01/27 04:15:58;;;;;;;32.70;15.40;;;-3.10;99.90;;;;;;5093797;28;20709;-65
2022/01/27 04:18:27;;;;;;;34.43;16.33;;;-3.20;99.90;;;;;;5093261;28;20200;-65
2022/01/27 04:20:54;;;;;;;36.73;17.87;;;-3.30;99.90;;;;;;5093467;28;20228;-65
2022/01/27 04:23:21;;;;;;;36.80;16.67;;;-3.30;99.90;;;;;;5092617;28;20200;-66
2022/01/27 04:25:48;;;;;;;37.80;17.07;;;-3.40;99.90;;;;;;5093528;28;20252;-66
2022/01/27 04:28:21;;;;;;;37.57;18.33;;;-3.50;99.90;;;;;;5093106;28;20212;-65
2022/01/27 04:30:48;;;;;;;38.53;18.57;;;-3.50;99.90;;;;;;5092396;28;20203;-64
2022/01/27 04:33:17;;;;;;;43.47;19.20;;;-3.50;99.90;;;;;;5093332;28;20257;-67
2022/01/27 04:35:48;;;;;;;42.67;19.13;;;-3.60;99.90;;;;;;5093289;28;20277;-65
2022/01/27 04:41:10;;;;;;;45.20;19.60;;;-3.60;99.90;;;;;;5087150;28;20711;-65
2022/01/27 04:43:42;;;;;;;41.87;19.23;;;-3.70;99.90;;;;;;5092863;28;20203;-65
2022/01/27 04:46:20;;;;;;;43.00;18.03;;;-3.70;99.90;;;;;;5092992;28;20683;-65
2022/01/27 04:48:52;;;;;;;37.60;18.90;;;-3.70;99.90;;;;;;5072576;28;20216;-67
2022/01/27 04:51:23;;;;;;;43.80;19.90;;;-3.70;99.90;;;;;;5072447;28;20195;-65
2022/01/27 04:53:55;;;;;;;41.80;18.83;;;-3.70;99.90;;;;;;5072918;28;20189;-65
2022/01/27 04:56:23;;;;;;;35.53;17.20;;;-3.70;99.90;;;;;;5072840;28;20197;-65
2022/01/27 04:58:54;;;;;;;33.37;16.70;;;-3.70;99.90;;;;;;5091979;28;20660;-65
2022/01/27 05:01:27;;;;;;;35.87;17.47;;;-3.80;99.90;;;;;;5093020;28;20544;-66
2022/01/27 05:03:59;;;;;;;38.03;17.87;;;-3.80;99.90;;;;;;5092954;28;20250;-64
2022/01/27 05:06:27;;;;;;;39.13;18.50;;;-3.80;99.90;;;;;;5092255;28;20290;-65
2022/01/27 05:08:55;;;;;;;36.80;18.77;;;-3.80;99.90;;;;;;5092432;28;20206;-65
2022/01/27 05:11:26;;;;;;;36.90;18.10;;;-3.80;99.90;;;;;;5092459;28;20203;-68
2022/01/27 05:13:56;;;;;;;41.87;19.10;;;-3.90;99.90;;;;;;5092421;28;20611;-66
2022/01/27 05:16:23;;;;;;;37.03;17.30;;;-3.90;99.90;;;;;;5092696;28;20655;-67
2022/01/27 05:18:50;;;;;;;40.13;16.83;;;-3.90;99.90;;;;;;5092496;28;20291;-64
2022/01/27 05:21:17;;;;;;;35.60;17.03;;;-3.90;99.90;;;;;;5091870;28;20200;-66
2022/01/27 05:23:45;;;;;;;41.23;17.63;;;-3.90;99.90;;;;;;5092207;28;20301;-65
2022/01/27 05:26:12;;;;;;;46.20;17.97;;;-3.90;99.90;;;;;;5092221;28;20684;-65
2022/01/27 05:28:38;;;;;;;44.30;18.47;;;-4.00;99.90;;;;;;5092523;28;20204;-65
2022/01/27 05:31:06;;;;;;;46.57;19.63;;;-4.10;99.90;;;;;;5091554;28;20199;-65
2022/01/27 05:33:33;;;;;;;45.60;18.33;;;-4.00;99.90;;;;;;5092270;28;20207;-65
2022/01/27 05:36:01;;;;;;;43.93;17.87;;;-4.10;99.90;;;;;;5091590;28;20228;-65
2022/01/27 05:38:28;;;;;;;37.37;16.37;;;-4.10;99.90;;;;;;5092365;28;20229;-65
2022/01/27 05:40:56;;;;;;;42.30;17.33;;;-4.10;99.90;;;;;;5085702;28;20234;-65
2022/01/27 05:43:22;;;;;;;37.90;15.97;;;-4.10;99.90;;;;;;5071975;28;20219;-66
2022/01/27 05:45:49;;;;;;;35.27;16.63;;;-4.00;99.90;;;;;;5087211;28;20243;-65
2022/01/27 05:48:16;;;;;;;36.50;17.20;;;-4.10;99.90;;;;;;5091981;28;20227;-66
2022/01/27 05:50:43;;;;;;;37.87;18.10;;;-4.10;99.90;;;;;;5091700;28;20876;-66
2022/01/27 05:53:10;;;;;;;39.57;17.90;;;-4.00;99.90;;;;;;5091783;28;20207;-65
2022/01/27 05:55:37;;;;;;;38.43;17.87;;;-4.00;99.90;;;;;;5091696;28;20196;-65
2022/01/27 05:58:05;;;;;;;38.60;18.33;;;-3.90;99.90;;;;;;5091045;28;20207;-65
2022/01/27 06:00:32;;;;;;;38.90;18.63;;;-3.80;99.90;;;;;;5091925;28;20236;-65
2022/01/27 06:02:59;;;;;;;43.80;20.93;;;-3.80;99.90;;;;;;5091437;28;20203;-65
2022/01/27 06:05:26;;;;;;;44.40;22.03;;;-3.70;99.90;;;;;;5091914;28;20707;-67
2022/01/27 06:07:53;;;;;;;41.83;19.90;;;-3.70;99.90;;;;;;5091305;28;20208;-67
2022/01/27 06:10:19;;;;;;;38.93;19.50;;;-3.60;99.90;;;;;;5094026;28;20200;-66
2022/01/27 06:12:48;;;;;;;40.37;18.97;;;-3.60;99.90;;;;;;5095767;28;20243;-66
2022/01/27 06:15:16;;;;;;;39.70;18.47;;;-3.60;99.90;;;;;;5095536;28;20200;-67
2022/01/27 06:17:43;;;;;;;37.53;18.57;;;-3.50;99.90;;;;;;5095779;28;20276;-65
2022/01/27 06:20:11;;;;;;;37.83;18.20;;;-3.50;99.90;;;;;;5095821;28;20206;-66
2022/01/27 06:22:38;;;;;;;41.27;19.43;;;-3.50;99.90;;;;;;5095645;28;20214;-67
2022/01/27 06:25:06;;;;;;;39.00;18.67;;;-3.50;99.90;;;;;;5095461;28;20558;-65
2022/01/27 06:27:33;;;;;;;46.73;20.33;;;-3.40;99.90;;;;;;5095389;28;20208;-65
2022/01/27 06:30:00;;;;;;;37.97;19.03;;;-3.40;99.90;;;;;;5094918;28;20196;-66
2022/01/27 06:32:28;;;;;;;44.57;20.43;;;-3.40;99.90;;;;;;5095367;28;20208;-65
2022/01/27 06:34:55;;;;;;;42.40;19.97;;;-3.30;99.90;;;;;;5095398;28;20650;-68
2022/01/27 06:37:22;;;;;;;43.23;19.63;;;-3.30;99.90;;;;;;5094932;28;20713;-66
2022/01/27 06:39:49;;;;;;;41.97;20.03;;;-3.20;99.90;;;;;;5094897;28;20640;-66
2022/01/27 06:42:15;;;;;;;41.93;20.17;;;-3.10;99.90;;;;;;5095560;28;20716;-65
2022/01/27 06:44:42;;;;;;;39.70;20.00;;;-3.00;99.90;;;;;;5094773;28;20219;-65
2022/01/27 06:47:09;;;;;;;37.57;18.57;;;-3.00;99.90;;;;;;5095148;28;20211;-66
2022/01/27 06:49:37;;;;;;;38.93;19.00;;;-2.90;99.90;;;;;;5094978;28;20564;-65
2022/01/27 06:52:05;;;;;;;43.20;20.10;;;-2.80;99.90;;;;;;5095032;28;20211;-67
2022/01/27 06:54:32;;;;;;;41.53;19.20;;;-2.70;99.90;;;;;;5095229;28;20820;-66
2022/01/27 06:57:00;;;;;;;41.30;19.90;;;-2.60;99.90;;;;;;5094664;28;20199;-65
2022/01/27 06:59:27;;;;;;;44.83;20.70;;;-2.60;99.90;;;;;;5095090;28;20208;-68
2022/01/27 07:01:54;;;;;;;41.70;20.00;;;-2.50;99.90;;;;;;5094943;28;20587;-69
2022/01/27 07:04:21;;;;;;;42.53;20.27;;;-2.40;99.90;;;;;;5094916;28;20205;-66
2022/01/27 07:06:51;;;;;;;43.73;19.90;;;-2.30;99.90;;;;;;5094409;28;20224;-67
2022/01/27 07:09:18;;;;;;;46.90;21.13;;;-2.30;99.90;;;;;;5095015;28;20192;-67
2022/01/27 07:11:45;;;;;;;42.30;20.60;;;-2.20;99.90;;;;;;5094433;28;20286;-69
2022/01/27 07:14:12;;;;;;;44.03;21.23;;;-2.20;99.90;;;;;;5094713;28;20200;-68
2022/01/27 07:16:39;;;;;;;44.63;20.77;;;-2.20;99.90;;;;;;5094653;28;20613;-67
2022/01/27 07:19:06;;;;;;;46.37;21.23;;;-2.10;99.90;;;;;;5094556;28;20210;-67
2022/01/27 07:21:33;;;;;;;41.23;20.70;;;-2.10;99.90;;;;;;5093632;28;20218;-66
2022/01/27 07:24:01;;;;;;;41.53;19.80;;;-2.10;99.90;;;;;;5094020;28;20203;-66
2022/01/27 07:26:28;;;;;;;46.37;21.17;;;-2.00;99.90;;;;;;5094078;28;20223;-66
2022/01/27 07:28:55;;;;;;;41.97;19.80;;;-1.90;99.90;;;;;;5094411;28;20569;-66
2022/01/27 07:31:22;;;;;;;40.50;20.03;;;-1.80;99.90;;;;;;5093965;28;20196;-68
2022/01/27 07:33:51;;;;;;;41.60;19.60;;;-1.70;99.90;;;;;;5073997;28;20243;-71
2022/01/27 07:36:18;;;;;;;39.83;19.77;;;-1.60;99.90;;;;;;5074056;28;20204;-68
2022/01/27 07:38:47;;;;;;;36.90;19.17;;;-1.70;99.90;;;;;;5074078;28;20581;-67
2022/01/27 07:41:16;;;;;;;41.03;20.23;;;-1.80;99.90;;;;;;5073850;28;20242;-68
2022/01/27 07:43:43;;;;;;;37.13;18.37;;;-1.90;99.90;;;;;;5091973;28;20200;-67
2022/01/27 07:46:11;;;;;;;38.87;19.37;;;-1.90;99.90;;;;;;5094334;28;20231;-67
2022/01/27 07:48:38;;;;;;;43.70;20.23;;;-1.90;99.90;;;;;;5093771;28;20227;-69
2022/01/27 07:51:07;;;;;;;40.77;20.23;;;-1.80;99.90;;;;;;5093900;28;20223;-67
2022/01/27 07:53:34;;;;;;;43.83;21.43;;;-1.80;99.90;;;;;;5093643;28;20204;-65
2022/01/27 07:56:02;;;;;;;45.90;21.90;;;-1.70;99.90;;;;;;5094257;28;20660;-65
2022/01/27 07:58:30;;;;;;;49.60;22.70;;;-1.60;99.90;;;;;;5093901;28;20204;-65
2022/01/27 08:00:57;;;;;;;44.33;21.63;;;-1.60;99.90;;;;;;5093307;28;20228;-68
2022/01/27 08:03:24;;;;;;;54.27;22.97;;;-1.50;99.90;;;;;;5093801;28;20218;-66
2022/01/27 08:05:52;;;;;;;56.17;24.30;;;-1.40;99.90;;;;;;5093700;28;20228;-66
2022/01/27 08:08:19;;;;;;;50.33;24.50;;;-1.40;99.90;;;;;;5093634;28;20211;-67
2022/01/27 08:10:48;;;;;;;57.07;25.00;;;-1.30;99.90;;;;;;5093404;28;20255;-66
2022/01/27 08:13:15;;;;;;;49.67;25.00;;;-1.20;99.90;;;;;;5093945;28;20304;-67
2022/01/27 08:15:43;;;;;;;56.17;26.30;;;-1.00;99.90;;;;;;5093503;28;20568;-67
2022/01/27 08:18:10;;;;;;;49.73;24.97;;;-0.90;99.90;;;;;;5093429;28;20204;-67
2022/01/27 08:20:37;;;;;;;56.90;27.03;;;-0.80;99.90;;;;;;5093329;28;20210;-68
2022/01/27 08:23:05;;;;;;;52.47;24.50;;;-0.70;99.90;;;;;;5093773;28;20614;-65
2022/01/27 08:25:32;;;;;;;56.77;27.23;;;-0.60;99.90;;;;;;5092981;28;20216;-67
2022/01/27 08:28:02;;;;;;;47.50;23.37;;;-0.50;99.90;;;;;;5093769;28;20206;-68
2022/01/27 08:30:29;;;;;;;46.60;23.47;;;-0.40;99.90;;;;;;5092967;28;20216;-67
2022/01/27 08:33:04;;;;;;;44.90;22.87;;;-0.30;99.90;;;;;;5089639;28;20220;-66
2022/01/27 08:35:31;;;;;;;41.80;20.73;;;-0.20;99.90;;;;;;5093353;28;20203;-67
2022/01/27 08:37:58;;;;;;;38.70;19.20;;;-0.10;99.90;;;;;;5090821;28;20207;-68
2022/01/27 08:40:25;;;;;;;42.27;21.47;;;-0.20;99.90;;;;;;5092103;28;20237;-66
2022/01/27 08:42:52;;;;;;;40.07;20.50;;;-0.10;99.90;;;;;;5092867;28;20208;-67
2022/01/27 08:45:21;;;;;;;42.87;21.90;;;-0.10;99.90;;;;;;5092682;28;20648;-66
2022/01/27 08:47:49;;;;;;;55.23;25.17;;;0.10;99.90;;;;;;5078279;28;20201;-68
2022/01/27 08:50:19;;;;;;;59.50;25.83;;;0.10;99.90;;;;;;5073495;28;20228;-67
2022/01/27 08:52:47;;;;;;;52.53;25.13;;;0.20;99.90;;;;;;5093081;28;20211;-68
2022/01/27 08:55:16;;;;;;;45.90;23.80;;;0.30;99.90;;;;;;5092986;28;20234;-66
2022/01/27 08:57:43;;;;;;;44.40;23.07;;;0.40;99.90;;;;;;5092859;28;20200;-67
2022/01/27 09:00:12;;;;;;;46.80;23.90;;;0.40;99.90;;;;;;5092893;28;20204;-68
2022/01/27 09:02:39;;;;;;;43.60;23.23;;;0.50;99.90;;;;;;5091665;28;20203;-67
2022/01/27 09:05:06;;;;;;;44.40;21.93;;;0.40;99.90;;;;;;5072668;28;20536;-67
2022/01/27 09:07:36;;;;;;;38.40;21.80;;;0.30;99.90;;;;;;5072647;28;20311;-67
2022/01/27 09:10:04;;;;;;;40.43;20.77;;;0.10;99.90;;;;;;5072895;28;20649;-66
2022/01/27 09:12:30;;;;;;;40.13;21.70;;;0.00;99.90;;;;;;5072081;28;20208;-66
2022/01/27 09:14:58;;;;;;;39.63;21.70;;;-0.10;99.90;;;;;;5072324;28;20207;-65
2022/01/27 09:17:26;;;;;;;46.30;23.90;;;-0.10;99.90;;;;;;5072083;28;20232;-66
2022/01/27 09:19:53;;;;;;;42.37;21.63;;;-0.20;99.90;;;;;;5072399;28;20205;-67
2022/01/27 09:22:22;;;;;;;42.27;21.70;;;-0.30;99.90;;;;;;5071950;28;20292;-68
2022/01/27 09:24:55;;;;;;;43.73;22.47;;;-0.30;99.90;;;;;;5072319;28;20657;-69
2022/01/27 09:27:25;;;;;;;39.33;21.80;;;-0.10;99.90;;;;;;5078961;28;20204;-67
2022/01/27 09:29:52;;;;;;;44.17;22.50;;;0.00;99.90;;;;;;5092542;28;20564;-68
2022/01/27 09:32:19;;;;;;;43.83;22.43;;;0.10;99.90;;;;;;5088718;28;20313;-68
2022/01/27 09:34:46;;;;;;;46.03;23.03;;;0.20;99.90;;;;;;5072401;28;20296;-69
2022/01/27 09:37:14;;;;;;;46.87;24.00;;;0.30;99.90;;;;;;5075004;28;20188;-66
2022/01/27 09:39:42;;;;;;;43.50;22.83;;;0.40;99.90;;;;;;5088117;28;20266;-68
2022/01/27 09:42:10;;;;;;;44.63;23.40;;;0.40;99.90;;;;;;5092317;28;20307;-68
2022/01/27 09:44:40;;;;;;;43.50;23.33;;;0.40;99.90;;;;;;5091674;28;20212;-70
2022/01/27 09:47:11;;;;;;;44.50;23.63;;;0.30;99.90;;;;;;5092253;28;20223;-67
2022/01/27 09:49:41;;;;;;;46.17;24.13;;;0.40;99.90;;;;;;5091868;28;20759;-68
2022/01/27 09:52:08;;;;;;;46.40;23.40;;;0.50;99.90;;;;;;5091903;28;20199;-70
2022/01/27 09:54:36;;;;;;;45.03;24.10;;;0.50;99.90;;;;;;5091872;28;20585;-65
2022/01/27 09:57:04;;;;;;;48.13;24.13;;;0.40;99.90;;;;;;5091614;28;20656;-67
2022/01/27 09:59:33;;;;;;;50.93;26.70;;;0.30;99.90;;;;;;5075196;28;20580;-67
2022/01/27 10:02:02;;;;;;;51.47;25.43;;;0.30;99.90;;;;;;5071914;28;20201;-68
2022/01/27 10:04:43;;;;;;;49.03;25.40;;;0.40;99.90;;;;;;5071612;28;20200;-69
2022/01/27 10:07:11;;;;;;;46.93;25.57;;;0.50;99.90;;;;;;5071798;28;20221;-68
2022/01/27 10:09:37;;;;;;;42.97;24.20;;;0.50;99.90;;;;;;5071736;28;20277;-68
2022/01/27 10:12:06;;;;;;;46.37;24.13;;;0.50;99.90;;;;;;5071956;28;20200;-68
2022/01/27 10:14:38;;;;;;;42.73;22.93;;;0.50;99.90;;;;;;5071674;28;20661;-68
2022/01/27 10:17:10;;;;;;;43.70;22.93;;;0.60;99.90;;;;;;5071829;28;20215;-66
2022/01/27 10:19:37;;;;;;;46.60;23.43;;;0.70;99.90;;;;;;5071718;28;20193;-67
2022/01/27 10:22:06;;;;;;;43.50;23.07;;;0.80;99.90;;;;;;5071686;28;20208;-66
2022/01/27 10:24:34;;;;;;;43.90;22.77;;;0.80;99.90;;;;;;5071477;28;20205;-69
2022/01/27 10:27:21;;;;;;;42.67;22.70;;;0.90;99.90;;;;;;5071338;28;20274;-67
2022/01/27 10:32:45;;;;;;;44.30;23.20;;;0.80;99.90;;;;;;5046623;28;20212;-68
2022/01/27 10:35:14;;;;;;;45.57;23.20;;;0.90;99.90;;;;;;5080811;28;20204;-67
2022/01/27 10:38:01;;;;;;;43.40;23.43;;;0.90;99.90;;;;;;5091648;28;20556;-67
2022/01/27 10:40:30;;;;;;;43.37;23.33;;;1.00;99.90;;;;;;5091262;28;20231;-68
2022/01/27 10:43:07;;;;;;;44.63;23.67;;;1.20;99.90;;;;;;5091781;28;20219;-66
2022/01/27 10:45:35;;;;;;;49.53;23.63;;;1.10;99.90;;;;;;5091472;28;20554;-68
2022/01/27 10:48:17;;;;;;;40.83;22.60;;;1.00;99.90;;;;;;5091227;28;20228;-67
2022/01/27 10:50:52;;;;;;;43.30;23.17;;;1.00;99.90;;;;;;5091287;28;20724;-68
2022/01/27 10:53:20;;;;;;;41.70;22.77;;;1.10;99.90;;;;;;5091475;28;20245;-68
2022/01/27 10:56:04;;;;;;;41.87;21.50;;;1.20;99.90;;;;;;5092628;28;20214;-68
2022/01/27 10:58:31;;;;;;;42.50;22.67;;;1.30;99.90;;;;;;5095077;28;20216;-69
2022/01/27 11:01:01;;;;;;;43.90;22.13;;;1.30;99.90;;;;;;5094883;28;20210;-69
2022/01/27 11:03:28;;;;;;;39.27;20.97;;;1.30;99.90;;;;;;5095097;28;20204;-67
2022/01/27 11:05:56;;;;;;;43.37;21.70;;;1.40;99.90;;;;;;5094907;28;20208;-67
2022/01/27 11:08:26;;;;;;;39.23;21.33;;;1.30;99.90;;;;;;5093855;28;20197;-68
2022/01/27 11:10:53;;;;;;;40.73;21.23;;;1.40;99.90;;;;;;5095026;28;20616;-68
2022/01/27 11:13:22;;;;;;;38.20;20.87;;;1.50;99.90;;;;;;5094588;28;20678;-67
2022/01/27 11:15:53;;;;;;;42.90;23.17;;;1.50;99.90;;;;;;5091169;28;20201;-68
2022/01/27 11:18:24;;;;;;;41.23;20.57;;;1.50;99.90;;;;;;5074278;28;20279;-69
2022/01/27 11:20:56;;;;;;;39.50;21.33;;;1.50;99.90;;;;;;5074109;28;20200;-68
2022/01/27 11:26:13;;;;;;;37.83;20.93;;;1.50;99.90;;;;;;5073643;28;20287;-68
2022/01/27 11:28:45;;;;;;;41.33;21.17;;;1.50;99.90;;;;;;5074237;28;20291;-68
2022/01/27 11:31:25;;;;;;;41.43;21.00;;;1.50;99.90;;;;;;5074334;28;20194;-66
2022/01/27 11:34:01;;;;;;;44.63;21.83;;;1.50;99.90;;;;;;5074372;28;20185;-69
2022/01/27 11:36:29;;;;;;;42.87;22.10;;;1.50;99.90;;;;;;5074271;28;20218;-67
2022/01/27 11:38:57;;;;;;;40.33;22.90;;;1.50;99.90;;;;;;5087955;28;20284;-67
2022/01/27 11:41:39;;;;;;;42.67;22.53;;;1.50;99.90;;;;;;5094004;28;20285;-68
2022/01/27 11:44:33;;;;;;;42.73;23.10;;;1.50;99.90;;;;;;5094145;28;20208;-66
2022/01/27 11:47:20;;;;;;;46.60;23.83;;;1.50;99.90;;;;;;5094431;28;20216;-69
2022/01/27 11:49:58;;;;;;;45.77;24.40;;;1.60;99.90;;;;;;5093114;28;20204;-68
2022/01/27 11:52:29;;;;;;;54.43;26.53;;;1.60;99.90;;;;;;5094561;28;20196;-69
2022/01/27 11:54:58;;;;;;;51.27;26.80;;;1.60;99.90;;;;;;5094397;28;20192;-69
2022/01/27 11:57:42;;;;;;;52.93;26.63;;;1.70;99.90;;;;;;5094017;28;20200;-67
2022/01/27 12:00:13;;;;;;;61.17;28.60;;;1.80;99.90;;;;;;5094147;28;20204;-67
2022/01/27 12:03:08;;;;;;;51.20;26.57;;;1.80;99.90;;;;;;5093916;28;20195;-68
2022/01/27 12:05:39;;;;;;;53.90;27.27;;;1.90;99.90;;;;;;5093259;28;20200;-68
2022/01/27 12:08:25;;;;;;;51.57;25.67;;;1.90;99.90;;;;;;5093447;28;20204;-68
2022/01/27 12:10:56;;;;;;;51.20;25.63;;;2.00;99.90;;;;;;5093007;28;20192;-66
2022/01/27 12:14:00;;;;;;;49.13;25.37;;;2.00;99.90;;;;;;5073623;28;20707;-68
2022/01/27 12:16:51;;;;;;;52.90;25.47;;;2.00;99.90;;;;;;5061711;28;20203;-68
2022/01/27 12:19:17;;;;;;;49.43;25.63;;;1.90;99.90;;;;;;5093878;28;20192;-68
2022/01/27 12:21:56;;;;;;;49.93;25.80;;;2.00;99.90;;;;;;5093645;28;20215;-68
2022/01/27 12:24:27;;;;;;;50.30;25.43;;;2.00;99.90;;;;;;5093775;28;20184;-68
2022/01/27 12:26:56;;;;;;;49.57;25.43;;;2.00;99.90;;;;;;5093708;28;20672;-67
2022/01/27 12:29:32;;;;;;;51.23;25.73;;;1.90;99.90;;;;;;5093784;28;20296;-67
2022/01/27 12:32:00;;;;;;;48.10;25.37;;;1.90;99.90;;;;;;5093193;28;20208;-66
2022/01/27 12:34:28;;;;;;;50.83;25.43;;;1.90;99.90;;;;;;5092615;28;20675;-67
2022/01/27 12:37:08;;;;;;;49.67;25.37;;;2.00;99.90;;;;;;5092969;28;20220;-65
2022/01/27 12:39:37;;;;;;;49.87;25.97;;;2.00;99.90;;;;;;5093120;28;20688;-68
2022/01/27 12:42:06;;;;;;;52.27;25.70;;;2.00;99.90;;;;;;5093295;28;20211;-69
2022/01/27 12:44:33;;;;;;;49.67;26.53;;;2.00;99.90;;;;;;5090214;28;20201;-68
2022/01/27 12:47:13;;;;;;;52.70;26.90;;;2.00;99.90;;;;;;5082243;28;20408;-67
2022/01/27 12:49:44;;;;;;;52.80;26.83;;;2.00;99.90;;;;;;5092982;28;20188;-66
2022/01/27 12:52:15;;;;;;;53.80;27.13;;;2.00;99.90;;;;;;5086080;28;20185;-66
2022/01/27 12:54:43;;;;;;;54.93;26.03;;;2.00;99.90;;;;;;5080100;28;20533;-66
2022/01/27 12:57:11;;;;;;;52.47;27.57;;;2.00;99.90;;;;;;5087002;28;20197;-68
2022/01/27 12:59:42;;;;;;;52.07;27.43;;;2.10;99.90;;;;;;5078126;28;20274;-68
2022/01/27 13:02:10;;;;;;;55.53;28.23;;;2.10;99.90;;;;;;5074508;28;20197;-68
2022/01/27 13:04:39;;;;;;;58.20;28.17;;;2.10;99.90;;;;;;5072996;28;20200;-66
2022/01/27 13:07:07;;;;;;;56.67;29.37;;;2.20;99.90;;;;;;5081369;28;20576;-67
2022/01/27 13:09:36;;;;;;;62.33;28.67;;;2.20;99.90;;;;;;5088249;28;20730;-67
2022/01/27 13:12:18;;;;;;;55.33;28.20;;;2.20;99.90;;;;;;5092682;28;20204;-67
2022/01/27 13:14:50;;;;;;;53.87;27.67;;;2.10;99.90;;;;;;5087951;28;20641;-66
2022/01/27 13:17:26;;;;;;;52.43;27.87;;;2.20;99.90;;;;;;5092740;28;20254;-67
2022/01/27 13:19:58;;;;;;;64.10;31.33;;;2.20;99.90;;;;;;5091641;28;20283;-66